createdAt,value
2018-06-01T00:01:46.777Z,17.29
2018-06-01T00:04:14.411Z,17.29
2018-06-01T00:06:42.037Z,17.19
2018-06-01T00:12:51.993Z,17.24
2018-06-01T00:15:19.628Z,17.04
2018-06-01T00:17:47.266Z,17.04
2018-06-01T00:20:14.886Z,17.02
2018-06-01T00:22:42.510Z,17.05
2018-06-01T00:25:10.136Z,16.93
2018-06-01T00:27:37.809Z,16.83
2018-06-01T00:30:05.436Z,16.84
2018-06-01T00:32:33.070Z,16.76
2018-06-01T00:35:00.689Z,16.94
2018-06-01T00:37:28.312Z,16.88
2018-06-01T00:39:55.935Z,16.84
2018-06-01T00:42:23.558Z,16.81
2018-06-01T00:44:51.182Z,16.81
2018-06-01T00:47:18.822Z,16.77
2018-06-01T00:49:46.448Z,16.73
2018-06-01T00:52:14.078Z,16.70
2018-06-01T00:54:53.510Z,16.73
2018-06-01T00:57:21.139Z,16.74
2018-06-01T00:59:48.765Z,16.73
2018-06-01T01:02:16.411Z,16.78
2018-06-01T01:04:44.035Z,16.77
2018-06-01T01:07:11.664Z,16.78
2018-06-01T01:09:39.307Z,16.74
2018-06-01T01:12:06.934Z,16.80
2018-06-01T01:14:34.577Z,16.71
2018-06-01T01:17:02.189Z,16.74
2018-06-01T01:19:29.829Z,16.80
2018-06-01T01:21:57.464Z,16.74
2018-06-01T01:24:25.114Z,16.66
2018-06-01T01:26:52.734Z,16.58
2018-06-01T01:29:20.376Z,16.59
2018-06-01T01:31:48.007Z,16.57
2018-06-01T01:34:15.637Z,16.52
2018-06-01T01:36:43.272Z,16.30
2018-06-01T01:39:10.933Z,16.23
2018-06-01T01:41:38.566Z,16.20
2018-06-01T01:44:06.193Z,16.24
2018-06-01T01:46:33.831Z,16.21
2018-06-01T01:49:01.462Z,16.28
2018-06-01T01:51:29.089Z,16.18
2018-06-01T01:53:56.713Z,16.14
2018-06-01T01:56:24.426Z,16.11
2018-06-01T01:58:52.042Z,16.10
2018-06-01T02:01:19.678Z,16.12
2018-06-01T02:03:47.301Z,16.21
2018-06-01T02:06:14.933Z,16.08
2018-06-01T02:08:42.561Z,16.16
2018-06-01T02:11:10.189Z,16.14
2018-06-01T02:13:37.820Z,16.11
2018-06-01T02:16:05.503Z,16.06
2018-06-01T02:18:33.130Z,15.99
2018-06-01T02:21:00.749Z,15.98
2018-06-01T02:23:28.376Z,15.92
2018-06-01T02:25:55.999Z,15.95
2018-06-01T02:28:23.629Z,15.89
2018-06-01T02:30:51.270Z,15.83
2018-06-01T02:33:18.891Z,15.90
2018-06-01T02:35:46.533Z,15.82
2018-06-01T02:38:15.048Z,15.88
2018-06-01T02:40:42.727Z,15.96
2018-06-01T02:43:10.351Z,15.84
2018-06-01T02:45:37.973Z,15.85
2018-06-01T02:48:06.427Z,15.78
2018-06-01T02:50:34.043Z,15.87
2018-06-01T02:53:01.695Z,15.87
2018-06-01T02:55:29.334Z,15.92
2018-06-01T02:57:56.972Z,16.09
2018-06-01T03:00:24.600Z,16.09
2018-06-01T03:02:52.255Z,15.72
2018-06-01T03:05:19.874Z,15.63
2018-06-01T03:07:47.493Z,15.71
2018-06-01T03:10:15.124Z,15.74
2018-06-01T03:12:42.749Z,15.68
2018-06-01T03:15:10.413Z,15.66
2018-06-01T03:17:38.049Z,15.73
2018-06-01T03:20:05.679Z,15.86
2018-06-01T03:22:33.320Z,15.83
2018-06-01T03:25:00.968Z,15.77
2018-06-01T03:27:28.631Z,15.91
2018-06-01T03:29:56.261Z,15.98
2018-06-01T03:32:23.886Z,15.92
2018-06-01T03:34:51.518Z,16.06
2018-06-01T03:37:19.143Z,16.02
2018-06-01T03:39:46.769Z,16.05
2018-06-01T03:42:14.406Z,16.02
2018-06-01T03:44:42.052Z,16.01
2018-06-01T03:47:09.680Z,15.99
2018-06-01T03:49:37.307Z,16.02
2018-06-01T03:52:04.937Z,16.06
2018-06-01T03:54:32.557Z,16.13
2018-06-01T03:57:00.199Z,16.14
2018-06-01T03:59:27.838Z,16.20
2018-06-01T04:01:55.482Z,16.23
2018-06-01T04:04:24.712Z,16.32
2018-06-01T04:06:52.375Z,16.36
2018-06-01T04:09:20.032Z,16.37
2018-06-01T04:11:47.669Z,16.35
2018-06-01T04:14:15.332Z,16.47
2018-06-01T04:16:42.997Z,16.47
2018-06-01T04:19:10.656Z,16.53
2018-06-01T04:21:38.306Z,16.62
2018-06-01T04:24:05.954Z,16.84
2018-06-01T04:26:38.188Z,16.95
2018-06-01T04:29:06.150Z,17.01
2018-06-01T04:31:35.775Z,17.04
2018-06-01T04:34:03.421Z,17.22
2018-06-01T04:36:31.342Z,17.55
2018-06-01T04:38:59.061Z,17.63
2018-06-01T04:41:26.693Z,17.62
2018-06-01T04:43:54.318Z,17.70
2018-06-01T04:46:21.959Z,17.69
2018-06-01T04:48:49.583Z,17.67
2018-06-01T04:51:17.198Z,18.15
2018-06-01T04:53:44.840Z,18.49
2018-06-01T04:56:12.487Z,18.75
2018-06-01T04:58:40.138Z,18.77
2018-06-01T05:01:07.785Z,19.11
2018-06-01T05:03:35.410Z,19.61
2018-06-01T05:06:03.068Z,20.86
2018-06-01T05:08:30.693Z,21.47
2018-06-01T05:10:58.327Z,22.60
2018-06-01T05:13:25.969Z,22.95
2018-06-01T05:15:53.582Z,23.54
2018-06-01T05:18:21.211Z,23.83
2018-06-01T05:20:48.837Z,24.21
2018-06-01T05:23:16.468Z,23.49
2018-06-01T05:25:44.100Z,23.80
2018-06-01T05:28:11.726Z,24.29
2018-06-01T05:30:39.347Z,24.30
2018-06-01T05:33:06.966Z,24.00
2018-06-01T05:35:34.604Z,24.46
2018-06-01T05:38:02.220Z,25.02
2018-06-01T05:40:29.857Z,24.87
2018-06-01T05:42:57.513Z,25.42
2018-06-01T05:45:25.130Z,25.93
2018-06-01T05:47:52.783Z,26.06
2018-06-01T05:50:20.409Z,25.47
2018-06-01T05:52:48.021Z,25.57
2018-06-01T05:55:15.654Z,26.27
2018-06-01T05:57:43.285Z,26.22
2018-06-01T06:00:10.974Z,25.90
2018-06-01T06:02:38.625Z,26.88
2018-06-01T06:05:06.282Z,26.84
2018-06-01T06:07:33.926Z,26.55
2018-06-01T06:10:01.561Z,27.08
2018-06-01T06:12:29.194Z,27.11
2018-06-01T06:14:56.825Z,27.89
2018-06-01T06:17:24.464Z,28.23
2018-06-01T06:19:52.134Z,27.80
2018-06-01T06:22:19.752Z,28.47
2018-06-01T06:24:47.383Z,28.39
2018-06-01T06:27:15.114Z,28.17
2018-06-01T06:29:42.740Z,27.65
2018-06-01T06:32:10.382Z,27.46
2018-06-01T06:34:38.034Z,27.60
2018-06-01T06:37:05.664Z,27.67
2018-06-01T06:39:33.290Z,27.96
2018-06-01T06:42:00.928Z,29.06
2018-06-01T06:44:28.558Z,28.52
2018-06-01T06:46:56.195Z,28.42
2018-06-01T06:49:23.841Z,28.01
2018-06-01T06:51:51.487Z,28.51
2018-06-01T06:54:19.126Z,29.27
2018-06-01T06:56:46.762Z,29.74
2018-06-01T06:59:14.379Z,29.34
2018-06-01T07:01:42.015Z,29.21
2018-06-01T07:04:09.623Z,27.49
2018-06-01T07:06:37.273Z,26.04
2018-06-01T07:09:08.670Z,26.03
2018-06-01T07:11:36.299Z,27.60
2018-06-01T07:14:03.916Z,28.17
2018-06-01T07:16:31.535Z,28.40
2018-06-01T07:18:59.172Z,29.43
2018-06-01T07:21:26.802Z,28.94
2018-06-01T07:23:54.442Z,29.42
2018-06-01T07:26:22.072Z,29.24
2018-06-01T07:28:49.696Z,28.04
2018-06-01T07:31:17.330Z,27.44
2018-06-01T07:33:44.958Z,28.61
2018-06-01T07:36:12.593Z,28.81
2018-06-01T07:38:40.221Z,29.82
2018-06-01T07:41:07.863Z,28.67
2018-06-01T07:43:35.517Z,28.41
2018-06-01T07:46:04.129Z,28.85
2018-06-01T07:48:31.784Z,28.84
2018-06-01T07:50:59.738Z,29.27
2018-06-01T07:53:29.554Z,30.06
2018-06-01T07:55:57.233Z,28.85
2018-06-01T07:58:24.864Z,28.44
2018-06-01T08:00:52.525Z,27.85
2018-06-01T08:03:20.148Z,28.15
2018-06-01T08:05:47.779Z,27.93
2018-06-01T08:08:15.429Z,28.51
2018-06-01T08:10:43.076Z,28.81
2018-06-01T08:13:10.713Z,28.65
2018-06-01T08:15:38.346Z,29.05
2018-06-01T08:18:06.733Z,27.53
2018-06-01T08:20:34.357Z,26.82
2018-06-01T08:23:02.003Z,27.89
2018-06-01T08:25:29.634Z,28.66
2018-06-01T08:27:57.259Z,28.54
2018-06-01T08:30:24.899Z,27.29
2018-06-01T08:32:52.535Z,27.29
2018-06-01T08:35:20.171Z,27.71
2018-06-01T08:37:47.853Z,27.76
2018-06-01T08:40:15.485Z,28.22
2018-06-01T08:42:43.101Z,28.94
2018-06-01T08:45:10.730Z,28.46
2018-06-01T08:47:38.345Z,28.14
2018-06-01T08:50:05.987Z,27.83
2018-06-01T08:52:33.693Z,28.10
2018-06-01T08:55:01.286Z,28.31
2018-06-01T08:57:28.914Z,27.88
2018-06-01T08:59:56.556Z,27.83
2018-06-01T09:02:24.187Z,27.92
2018-06-01T09:04:51.826Z,28.51
2018-06-01T09:07:19.480Z,28.16
2018-06-01T09:09:47.110Z,27.61
2018-06-01T09:12:14.744Z,27.68
2018-06-01T09:14:42.399Z,27.17
2018-06-01T09:17:10.028Z,27.51
2018-06-01T09:19:37.666Z,28.33
2018-06-01T09:22:05.306Z,28.18
2018-06-01T09:24:32.943Z,28.66
2018-06-01T09:27:00.583Z,28.43
2018-06-01T09:29:28.205Z,28.20
2018-06-01T09:31:55.842Z,28.60
2018-06-01T09:34:23.500Z,28.29
2018-06-01T09:36:51.122Z,28.37
2018-06-01T09:39:18.804Z,27.95
2018-06-01T09:41:46.447Z,27.37
2018-06-01T09:44:14.085Z,27.61
2018-06-01T09:46:41.741Z,27.77
2018-06-01T09:49:09.355Z,28.26
2018-06-01T09:51:36.994Z,28.19
2018-06-01T09:54:04.642Z,28.42
2018-06-01T09:56:32.287Z,28.47
2018-06-01T09:58:59.916Z,28.82
2018-06-01T10:01:29.486Z,28.47
2018-06-01T10:03:57.151Z,28.61
2018-06-01T10:06:24.798Z,28.94
2018-06-01T10:08:52.430Z,28.61
2018-06-01T10:11:20.066Z,28.87
2018-06-01T10:13:47.697Z,28.69
2018-06-01T10:16:15.335Z,28.86
2018-06-01T10:18:42.980Z,28.93
2018-06-01T10:21:10.605Z,28.84
2018-06-01T10:23:38.241Z,29.04
2018-06-01T10:26:05.872Z,28.84
2018-06-01T10:28:33.500Z,27.73
2018-06-01T10:31:01.118Z,28.01
2018-06-01T10:33:28.782Z,28.66
2018-06-01T10:35:56.414Z,28.35
2018-06-01T10:38:24.062Z,27.71
2018-06-01T10:40:51.698Z,27.70
2018-06-01T10:43:19.333Z,27.52
2018-06-01T10:45:46.977Z,28.28
2018-06-01T10:48:15.755Z,28.91
2018-06-01T10:50:43.376Z,29.35
2018-06-01T10:53:11.003Z,28.96
2018-06-01T10:55:38.638Z,29.22
2018-06-01T10:58:06.259Z,29.23
2018-06-01T11:00:33.890Z,29.38
2018-06-01T11:03:01.519Z,28.84
2018-06-01T11:05:29.181Z,29.02
2018-06-01T11:07:56.815Z,29.00
2018-06-01T11:10:24.431Z,28.88
2018-06-01T11:12:52.077Z,28.79
2018-06-01T11:15:19.694Z,29.07
2018-06-01T11:17:47.318Z,29.34
2018-06-01T11:20:14.956Z,28.63
2018-06-01T11:22:42.577Z,28.87
2018-06-01T11:25:10.207Z,29.37
2018-06-01T11:27:37.837Z,29.47
2018-06-01T11:30:05.576Z,29.24
2018-06-01T11:32:33.222Z,29.52
2018-06-01T11:35:00.858Z,29.60
2018-06-01T11:37:28.498Z,29.42
2018-06-01T11:39:56.140Z,29.47
2018-06-01T11:42:23.778Z,29.58
2018-06-01T11:44:51.428Z,29.56
2018-06-01T11:47:19.080Z,29.70
2018-06-01T11:49:46.718Z,30.14
2018-06-01T11:52:14.407Z,29.99
2018-06-01T11:54:42.066Z,30.00
2018-06-01T11:57:09.712Z,29.86
2018-06-01T11:59:37.362Z,29.70
2018-06-01T12:02:05.022Z,29.39
2018-06-01T12:04:32.662Z,29.05
2018-06-01T12:07:00.281Z,28.97
2018-06-01T12:09:27.906Z,29.53
2018-06-01T12:11:55.540Z,29.62
2018-06-01T12:14:24.614Z,29.72
2018-06-01T12:16:52.301Z,29.61
2018-06-01T12:19:19.954Z,29.74
2018-06-01T12:21:49.161Z,29.64
2018-06-01T12:24:16.823Z,29.38
2018-06-01T12:26:44.464Z,29.18
2018-06-01T12:29:12.760Z,29.46
2018-06-01T12:31:40.409Z,29.74
2018-06-01T12:34:08.065Z,29.88
2018-06-01T12:36:35.838Z,29.85
2018-06-01T12:39:03.477Z,29.84
2018-06-01T12:41:31.136Z,29.93
2018-06-01T12:44:00.248Z,29.66
2018-06-01T12:46:28.122Z,29.11
2018-06-01T12:48:55.782Z,29.10
2018-06-01T12:51:23.417Z,29.32
2018-06-01T12:53:51.062Z,29.59
2018-06-01T12:56:18.741Z,29.33
2018-06-01T12:58:46.410Z,29.54
2018-06-01T13:01:14.050Z,29.56
2018-06-01T13:03:41.679Z,29.56
2018-06-01T13:06:09.359Z,30.04
2018-06-01T13:08:37.007Z,30.01
2018-06-01T13:11:05.506Z,29.45
2018-06-01T13:13:33.161Z,29.49
2018-06-01T13:16:00.782Z,29.30
2018-06-01T13:18:28.481Z,29.40
2018-06-01T13:20:56.120Z,29.71
2018-06-01T13:23:23.738Z,29.81
2018-06-01T13:25:51.373Z,30.02
2018-06-01T13:28:19.017Z,29.61
2018-06-01T13:30:46.649Z,29.97
2018-06-01T13:33:14.298Z,29.98
2018-06-01T13:35:41.939Z,30.06
2018-06-01T13:38:09.736Z,30.25
2018-06-01T13:40:37.385Z,30.00
2018-06-01T13:43:05.005Z,30.22
2018-06-01T13:45:32.633Z,30.25
2018-06-01T13:48:14.986Z,30.18
2018-06-01T13:50:42.667Z,30.11
2018-06-01T13:53:10.280Z,29.96
2018-06-01T13:55:37.908Z,29.98
2018-06-01T13:58:05.542Z,29.94
2018-06-01T14:00:33.183Z,29.82
2018-06-01T14:03:00.818Z,29.98
2018-06-01T14:05:28.583Z,30.27
2018-06-01T14:07:56.243Z,30.11
2018-06-01T14:10:23.858Z,29.99
2018-06-01T14:12:51.478Z,30.02
2018-06-01T14:15:19.126Z,29.68
2018-06-01T14:17:46.746Z,29.88
2018-06-01T14:20:14.388Z,29.79
2018-06-01T14:22:42.371Z,29.76
2018-06-01T14:25:10.455Z,29.70
2018-06-01T14:27:38.078Z,29.75
2018-06-01T14:30:05.714Z,29.59
2018-06-01T14:32:33.342Z,30.00
2018-06-01T14:35:01.051Z,29.94
2018-06-01T14:37:28.677Z,29.73
2018-06-01T14:39:56.311Z,29.53
2018-06-01T14:42:23.975Z,29.29
2018-06-01T14:44:51.602Z,29.51
2018-06-01T14:47:19.237Z,29.30
2018-06-01T14:49:46.884Z,29.31
2018-06-01T14:52:14.527Z,29.14
2018-06-01T14:54:42.318Z,29.13
2018-06-01T14:57:09.961Z,29.00
2018-06-01T14:59:37.602Z,28.94
2018-06-01T15:02:05.279Z,28.90
2018-06-01T15:04:33.029Z,28.94
2018-06-01T15:07:00.758Z,29.15
2018-06-01T15:09:28.402Z,29.21
2018-06-01T15:11:56.057Z,29.12
2018-06-01T15:14:23.730Z,29.23
2018-06-01T15:16:51.527Z,29.23
2018-06-01T15:19:19.234Z,28.76
2018-06-01T15:21:46.868Z,28.17
2018-06-01T15:24:14.515Z,27.83
2018-06-01T15:26:42.177Z,27.86
2018-06-01T15:29:09.833Z,27.87
2018-06-01T15:31:37.975Z,28.11
2018-06-01T15:34:07.097Z,28.14
2018-06-01T15:36:34.722Z,28.23
2018-06-01T15:39:02.367Z,28.12
2018-06-01T15:41:30.015Z,28.11
2018-06-01T15:43:57.653Z,28.15
2018-06-01T15:46:25.310Z,27.90
2018-06-01T15:48:52.954Z,27.72
2018-06-01T15:51:20.583Z,27.73
2018-06-01T15:53:48.214Z,27.80
2018-06-01T15:56:15.837Z,27.83
2018-06-01T15:58:43.498Z,27.72
2018-06-01T16:01:11.124Z,27.56
2018-06-01T16:03:38.782Z,27.55
2018-06-01T16:06:06.416Z,27.55
2018-06-01T16:08:34.042Z,27.38
2018-06-01T16:11:01.694Z,27.34
2018-06-01T16:13:36.702Z,27.19
2018-06-01T16:16:11.562Z,27.03
2018-06-01T16:18:46.909Z,26.95
2018-06-01T16:21:14.886Z,27.00
2018-06-01T16:23:49.381Z,26.90
2018-06-01T16:26:24.860Z,26.81
2018-06-01T16:29:01.320Z,26.77
2018-06-01T16:31:29.377Z,26.59
2018-06-01T16:33:57.038Z,26.53
2018-06-01T16:36:24.992Z,26.27
2018-06-01T16:38:52.657Z,26.22
2018-06-01T16:41:20.310Z,26.23
2018-06-01T16:43:48.074Z,26.09
2018-06-01T16:46:18.282Z,26.05
2018-06-01T16:48:46.167Z,25.89
2018-06-01T16:51:13.813Z,25.77
2018-06-01T16:53:41.487Z,25.71
2018-06-01T16:56:09.118Z,25.63
2018-06-01T16:58:40.927Z,25.60
2018-06-01T17:01:08.587Z,25.67
2018-06-01T17:03:36.282Z,25.60
2018-06-01T17:06:03.928Z,25.46
2018-06-01T17:08:31.590Z,25.23
2018-06-01T17:10:59.226Z,25.20
2018-06-01T17:13:26.860Z,25.29
2018-06-01T17:15:54.503Z,25.35
2018-06-01T17:18:22.195Z,25.35
2018-06-01T17:20:49.834Z,25.14
2018-06-01T17:23:17.662Z,25.12
2018-06-01T17:25:45.308Z,24.98
2018-06-01T17:28:12.926Z,25.00
2018-06-01T17:30:40.557Z,24.98
2018-06-01T17:33:08.172Z,24.89
2018-06-01T17:35:35.812Z,24.87
2018-06-01T17:38:03.458Z,24.85
2018-06-01T17:40:31.085Z,24.82
2018-06-01T17:42:58.727Z,24.58
2018-06-01T17:45:26.366Z,24.59
2018-06-01T17:47:53.999Z,24.64
2018-06-01T17:50:21.641Z,24.52
2018-06-01T17:52:49.294Z,24.41
2018-06-01T17:55:16.928Z,24.36
2018-06-01T17:57:44.569Z,24.15
2018-06-01T18:00:12.209Z,24.30
2018-06-01T18:02:39.833Z,24.13
2018-06-01T18:05:07.475Z,24.19
2018-06-01T18:07:56.758Z,24.24
2018-06-01T18:10:24.397Z,24.00
2018-06-01T18:12:52.022Z,24.05
2018-06-01T18:15:19.843Z,23.64
2018-06-01T18:17:47.645Z,23.76
2018-06-01T18:20:16.490Z,23.64
2018-06-01T18:22:44.174Z,23.68
2018-06-01T18:25:11.804Z,23.68
2018-06-01T18:27:39.449Z,23.50
2018-06-01T18:30:07.091Z,23.43
2018-06-01T18:32:34.725Z,23.38
2018-06-01T18:35:02.356Z,23.33
2018-06-01T18:37:30.015Z,23.35
2018-06-01T18:39:57.637Z,23.38
2018-06-01T18:42:25.269Z,23.24
2018-06-01T18:44:52.906Z,23.25
2018-06-01T18:47:20.557Z,23.19
2018-06-01T18:49:48.179Z,23.13
2018-06-01T18:52:15.792Z,23.07
2018-06-01T18:54:43.414Z,23.17
2018-06-01T18:57:11.048Z,23.16
2018-06-01T18:59:38.691Z,23.22
2018-06-01T19:02:06.353Z,23.16
2018-06-01T19:04:34.016Z,23.04
2018-06-01T19:07:01.680Z,22.98
2018-06-01T19:09:29.310Z,23.02
2018-06-01T19:11:56.959Z,23.08
2018-06-01T19:14:24.596Z,23.15
2018-06-01T19:16:52.215Z,23.20
2018-06-01T19:19:19.908Z,23.25
2018-06-01T19:21:47.555Z,22.95
2018-06-01T19:24:15.173Z,22.80
2018-06-01T19:26:42.818Z,22.83
2018-06-01T19:29:10.450Z,22.93
2018-06-01T19:31:38.107Z,23.21
2018-06-01T19:34:05.744Z,23.19
2018-06-01T19:36:33.405Z,23.12
2018-06-01T19:39:01.050Z,23.14
2018-06-01T19:41:28.702Z,23.01
2018-06-01T19:43:56.327Z,22.93
2018-06-01T19:46:23.956Z,22.92
2018-06-01T19:48:51.609Z,23.06
2018-06-01T19:51:19.240Z,22.99
2018-06-01T19:53:46.894Z,22.90
2018-06-01T19:56:14.531Z,22.82
2018-06-01T19:58:42.178Z,22.84
2018-06-01T20:01:09.805Z,22.77
2018-06-01T20:03:38.155Z,22.74
2018-06-01T20:06:05.829Z,22.67
2018-06-01T20:08:33.463Z,22.59
2018-06-01T20:11:01.121Z,22.67
2018-06-01T20:13:28.772Z,22.66
2018-06-01T20:15:56.400Z,22.45
2018-06-01T20:18:24.030Z,22.46
2018-06-01T20:20:51.651Z,22.43
2018-06-01T20:23:19.302Z,22.43
2018-06-01T20:25:46.944Z,22.28
2018-06-01T20:28:14.851Z,22.22
2018-06-01T20:30:42.482Z,22.16
2018-06-01T20:33:10.121Z,22.02
2018-06-01T20:35:37.762Z,22.02
2018-06-01T20:38:05.408Z,22.01
2018-06-01T20:40:33.040Z,21.84
2018-06-01T20:43:00.680Z,21.70
2018-06-01T20:45:28.347Z,21.76
2018-06-01T20:47:55.983Z,21.73
2018-06-01T20:50:23.625Z,21.67
2018-06-01T20:52:51.260Z,21.58
2018-06-01T20:55:18.905Z,21.60
2018-06-01T20:57:46.561Z,21.64
2018-06-01T21:00:14.571Z,21.73
2018-06-01T21:02:42.879Z,21.73
2018-06-01T21:05:10.535Z,21.54
2018-06-01T21:07:38.185Z,21.59
2018-06-01T21:10:05.833Z,21.61
2018-06-01T21:12:33.466Z,21.78
2018-06-01T21:15:01.097Z,21.88
2018-06-01T21:17:28.726Z,21.74
2018-06-01T21:19:56.339Z,21.60
2018-06-01T21:22:23.977Z,21.45
2018-06-01T21:24:51.617Z,21.33
2018-06-01T21:27:19.260Z,21.36
2018-06-01T21:29:46.897Z,21.23
2018-06-01T21:32:14.519Z,21.14
2018-06-01T21:34:42.143Z,21.14
2018-06-01T21:37:09.750Z,21.16
2018-06-01T21:39:37.377Z,21.14
2018-06-01T21:42:05.008Z,21.02
2018-06-01T21:44:32.626Z,21.14
2018-06-01T21:47:00.256Z,20.85
2018-06-01T21:49:27.886Z,20.84
2018-06-01T21:51:55.503Z,20.74
2018-06-01T21:54:23.122Z,20.74
2018-06-01T21:56:50.742Z,20.72
2018-06-01T21:59:18.387Z,20.65
2018-06-01T22:01:46.019Z,20.66
2018-06-01T22:04:13.640Z,20.58
2018-06-01T22:06:41.256Z,20.43
2018-06-01T22:09:08.891Z,20.42
2018-06-01T22:11:36.528Z,20.35
2018-06-01T22:14:04.154Z,20.08
2018-06-01T22:16:31.796Z,20.01
2018-06-01T22:18:59.422Z,20.11
2018-06-01T22:21:27.050Z,20.26
2018-06-01T22:23:54.668Z,20.17
2018-06-01T22:26:22.307Z,20.13
2018-06-01T22:28:49.929Z,20.10
2018-06-01T22:31:17.596Z,20.10
2018-06-01T22:33:45.220Z,20.12
2018-06-01T22:36:12.865Z,19.98
2018-06-01T22:38:40.488Z,20.02
2018-06-01T22:41:08.112Z,20.03
2018-06-01T22:43:35.748Z,20.24
2018-06-01T22:46:03.375Z,20.07
2018-06-01T22:48:31.013Z,19.87
2018-06-01T22:50:58.641Z,19.85
2018-06-01T22:53:26.277Z,19.87
2018-06-01T22:55:53.910Z,19.91
2018-06-01T22:58:23.161Z,19.84
2018-06-01T23:00:50.837Z,19.86
2018-06-01T23:03:18.470Z,19.86
2018-06-01T23:05:46.112Z,19.85
2018-06-01T23:08:13.737Z,19.76
2018-06-01T23:10:41.373Z,19.87
2018-06-01T23:13:09.018Z,19.91
2018-06-01T23:15:36.642Z,19.81
2018-06-01T23:18:04.263Z,19.80
2018-06-01T23:20:31.900Z,19.78
2018-06-01T23:22:59.535Z,19.78
2018-06-01T23:25:27.160Z,19.75
2018-06-01T23:27:54.795Z,19.76
2018-06-01T23:30:22.432Z,19.74
2018-06-01T23:32:50.083Z,19.76
2018-06-01T23:35:17.717Z,19.89
2018-06-01T23:37:45.355Z,19.78
2018-06-01T23:40:12.975Z,19.86
2018-06-01T23:42:40.662Z,19.65
2018-06-01T23:45:08.346Z,19.50
2018-06-01T23:47:36.002Z,19.33
2018-06-01T23:50:03.645Z,19.32
2018-06-01T23:52:31.279Z,19.32
2018-06-01T23:54:58.919Z,19.27
2018-06-01T23:57:26.549Z,19.44
2018-06-01T23:59:54.188Z,19.38
